Portada
METAR-TAF:

METAR-TAF

Aeroports :

Islamabad, Pakistan

latitud: 33-32-57N, longitud: 072-49-32E, altitud: 537 m

Observació

L'informe es va fer fa 38 minuts, a les 12:55 UTC
Vent 10 kt del Nord-Oest
Temperatura 18°C
Humitat 32%
Pressió 1017 hPa
Visibilitat: 7000 m

METAR: OPIS 171255Z 31010KT 7000 NSC 18/01 Q1017 NOSIG

Hora: 18:33 (13:33 UTC)

Pronòstic

L'informe es va fer fa 4 hores i 3 minuts, a les 09:30 UTC
Pronòstic vàlid del 17 a les 12 UTC al 18 a les 18 UTC
Vent 10 kt del Oest/Sud-Oest
Visibilitat: 6000 m
Escasses núvols a una alçada de 4000 ft
Núvols disperses a una alçada de 10000 ft
Temporalment
l' 18 a les 05 UTC al 18 a les 11 UTC
Vent 15 kt del Oest/Nord-Oest amb ràfegues de 25 kt
Visibilitat: 7000 m

TAF: OPIS 170930Z 1712/1818 24010KT 6000 FEW040 SCT100 TEMPO 1805/1811 30015G25KT 7000

Observacions i pronòstics meteorològics de més de 4000 aeroports (METAR i TAF).

Les estacions disponibles són els punts grocs i vermells al mapa.

Posi el ratolí al punt desitjat per veure el nom de l'estació.

Feu clic per veure les observacions i els pronòstics meteorològics.

Per canviar el mapa: feu clic els botons verds amb una creu de color negre per apropar; al botó verd amb un guió per allunyar la imatge; o en les fletxes verdes per a mapes adjacents.


METAR-TAF: